sensor_id;sensor_type;location;lat;lon;timestamp;temperature;humidity
65462;DHT22;53236;43.666;18.444;2023-08-24T00:02:06;18.20;99.90
65462;DHT22;53236;43.666;18.444;2023-08-24T00:04:32;18.20;99.90
65462;DHT22;53236;43.666;18.444;2023-08-24T00:06:59;18.20;99.90
65462;DHT22;53236;43.666;18.444;2023-08-24T00:09:26;18.20;99.90
65462;DHT22;53236;43.666;18.444;2023-08-24T00:11:52;18.20;99.90
65462;DHT22;53236;43.666;18.444;2023-08-24T00:14:18;18.20;99.90
65462;DHT22;53236;43.666;18.444;2023-08-24T00:16:44;18.20;99.90
65462;DHT22;53236;43.666;18.444;2023-08-24T00:19:10;18.20;99.90
65462;DHT22;53236;43.666;18.444;2023-08-24T00:21:36;18.10;99.90
65462;DHT22;53236;43.666;18.444;2023-08-24T00:24:02;18.10;99.90
65462;DHT22;53236;43.666;18.444;2023-08-24T00:26:27;18.10;99.90
65462;DHT22;53236;43.666;18.444;2023-08-24T00:28:53;18.00;99.90
65462;DHT22;53236;43.666;18.444;2023-08-24T00:31:19;18.00;99.90
65462;DHT22;53236;43.666;18.444;2023-08-24T00:33:45;18.00;99.90
65462;DHT22;53236;43.666;18.444;2023-08-24T00:36:10;18.00;99.90
65462;DHT22;53236;43.666;18.444;2023-08-24T00:38:36;17.90;99.90
65462;DHT22;53236;43.666;18.444;2023-08-24T00:41:02;17.80;99.90
65462;DHT22;53236;43.666;18.444;2023-08-24T00:43:29;17.80;99.90
65462;DHT22;53236;43.666;18.444;2023-08-24T00:46:00;17.80;99.90
65462;DHT22;53236;43.666;18.444;2023-08-24T00:48:27;17.80;99.90
65462;DHT22;53236;43.666;18.444;2023-08-24T00:51:01;17.70;99.90
65462;DHT22;53236;43.666;18.444;2023-08-24T00:53:28;17.70;99.90
65462;DHT22;53236;43.666;18.444;2023-08-24T00:55:55;17.70;99.90
65462;DHT22;53236;43.666;18.444;2023-08-24T00:58:21;17.70;99.90
65462;DHT22;53236;43.666;18.444;2023-08-24T01:00:49;17.70;99.90
65462;DHT22;53236;43.666;18.444;2023-08-24T01:03:16;17.70;99.90
65462;DHT22;53236;43.666;18.444;2023-08-24T01:05:43;17.70;99.90
65462;DHT22;53236;43.666;18.444;2023-08-24T01:08:09;17.70;99.90
65462;DHT22;53236;43.666;18.444;2023-08-24T01:10:43;17.80;99.90
65462;DHT22;53236;43.666;18.444;2023-08-24T01:13:10;17.80;99.90
65462;DHT22;53236;43.666;18.444;2023-08-24T01:15:44;17.90;99.90
65462;DHT22;53236;43.666;18.444;2023-08-24T01:18:15;17.90;99.90
65462;DHT22;53236;43.666;18.444;2023-08-24T01:20:43;18.00;99.90
65462;DHT22;53236;43.666;18.444;2023-08-24T01:23:25;18.00;99.90
65462;DHT22;53236;43.666;18.444;2023-08-24T01:28:32;18.00;99.90
65462;DHT22;53236;43.666;18.444;2023-08-24T01:30:58;18.00;99.90
65462;DHT22;53236;43.666;18.444;2023-08-24T01:33:24;18.00;99.90
65462;DHT22;53236;43.666;18.444;2023-08-24T01:35:50;18.00;99.90
65462;DHT22;53236;43.666;18.444;2023-08-24T01:38:16;18.00;99.90
65462;DHT22;53236;43.666;18.444;2023-08-24T01:43:29;18.00;99.90
65462;DHT22;53236;43.666;18.444;2023-08-24T01:45:56;17.90;99.90
65462;DHT22;53236;43.666;18.444;2023-08-24T01:48:24;18.00;99.90
65462;DHT22;53236;43.666;18.444;2023-08-24T01:50:51;18.00;99.90
65462;DHT22;53236;43.666;18.444;2023-08-24T01:53:17;18.00;99.90
65462;DHT22;53236;43.666;18.444;2023-08-24T01:55:45;17.90;99.90
65462;DHT22;53236;43.666;18.444;2023-08-24T01:58:11;17.90;99.90
65462;DHT22;53236;43.666;18.444;2023-08-24T02:00:37;17.90;99.90
65462;DHT22;53236;43.666;18.444;2023-08-24T02:03:04;17.80;99.90
65462;DHT22;53236;43.666;18.444;2023-08-24T02:05:29;17.80;99.90
65462;DHT22;53236;43.666;18.444;2023-08-24T02:07:55;17.70;99.90
65462;DHT22;53236;43.666;18.444;2023-08-24T02:10:23;17.70;99.90
65462;DHT22;53236;43.666;18.444;2023-08-24T02:12:48;17.70;99.90
65462;DHT22;53236;43.666;18.444;2023-08-24T02:15:14;17.80;99.90
65462;DHT22;53236;43.666;18.444;2023-08-24T02:17:40;17.70;99.90
65462;DHT22;53236;43.666;18.444;2023-08-24T02:20:06;17.60;99.90
65462;DHT22;53236;43.666;18.444;2023-08-24T02:22:34;17.60;99.90
65462;DHT22;53236;43.666;18.444;2023-08-24T02:25:00;17.50;99.90
65462;DHT22;53236;43.666;18.444;2023-08-24T02:27:27;17.60;99.90
65462;DHT22;53236;43.666;18.444;2023-08-24T02:29:53;17.50;99.90
65462;DHT22;53236;43.666;18.444;2023-08-24T02:32:19;17.50;99.90
65462;DHT22;53236;43.666;18.444;2023-08-24T02:34:45;17.60;99.90
65462;DHT22;53236;43.666;18.444;2023-08-24T02:37:11;17.60;99.90
65462;DHT22;53236;43.666;18.444;2023-08-24T02:39:37;17.70;99.90
65462;DHT22;53236;43.666;18.444;2023-08-24T02:42:02;17.60;99.90
65462;DHT22;53236;43.666;18.444;2023-08-24T02:44:28;17.50;99.90
65462;DHT22;53236;43.666;18.444;2023-08-24T02:46:54;17.40;99.90
65462;DHT22;53236;43.666;18.444;2023-08-24T02:49:20;17.30;99.90
65462;DHT22;53236;43.666;18.444;2023-08-24T02:51:46;17.30;99.90
65462;DHT22;53236;43.666;18.444;2023-08-24T02:54:12;17.40;99.90
65462;DHT22;53236;43.666;18.444;2023-08-24T02:56:37;17.40;99.90
65462;DHT22;53236;43.666;18.444;2023-08-24T02:59:03;17.30;99.90
65462;DHT22;53236;43.666;18.444;2023-08-24T03:01:29;17.20;99.90
65462;DHT22;53236;43.666;18.444;2023-08-24T03:03:55;17.30;99.90
65462;DHT22;53236;43.666;18.444;2023-08-24T03:06:21;17.30;99.90
65462;DHT22;53236;43.666;18.444;2023-08-24T03:08:49;17.20;99.90
65462;DHT22;53236;43.666;18.444;2023-08-24T03:11:15;17.20;99.90
65462;DHT22;53236;43.666;18.444;2023-08-24T03:13:40;17.10;99.90
65462;DHT22;53236;43.666;18.444;2023-08-24T03:16:07;17.00;99.90
65462;DHT22;53236;43.666;18.444;2023-08-24T03:18:34;16.90;99.90
65462;DHT22;53236;43.666;18.444;2023-08-24T03:20:59;17.00;99.90
65462;DHT22;53236;43.666;18.444;2023-08-24T03:23:26;17.00;99.90
65462;DHT22;53236;43.666;18.444;2023-08-24T03:25:52;17.00;99.90
65462;DHT22;53236;43.666;18.444;2023-08-24T03:28:18;17.00;99.90
65462;DHT22;53236;43.666;18.444;2023-08-24T03:30:50;17.00;99.90
65462;DHT22;53236;43.666;18.444;2023-08-24T03:33:16;17.00;99.90
65462;DHT22;53236;43.666;18.444;2023-08-24T03:35:42;17.00;99.90
65462;DHT22;53236;43.666;18.444;2023-08-24T03:38:08;17.00;99.90
65462;DHT22;53236;43.666;18.444;2023-08-24T03:40:34;16.90;99.90
65462;DHT22;53236;43.666;18.444;2023-08-24T03:43:01;16.90;99.90
65462;DHT22;53236;43.666;18.444;2023-08-24T03:45:27;16.90;99.90
65462;DHT22;53236;43.666;18.444;2023-08-24T03:47:54;16.90;99.90
65462;DHT22;53236;43.666;18.444;2023-08-24T03:50:19;16.90;99.90
65462;DHT22;53236;43.666;18.444;2023-08-24T03:52:45;16.80;99.90
65462;DHT22;53236;43.666;18.444;2023-08-24T03:55:11;16.70;99.90
65462;DHT22;53236;43.666;18.444;2023-08-24T03:57:37;16.80;99.90
65462;DHT22;53236;43.666;18.444;2023-08-24T04:00:06;16.70;99.90
65462;DHT22;53236;43.666;18.444;2023-08-24T04:02:40;16.70;99.90
65462;DHT22;53236;43.666;18.444;2023-08-24T04:05:06;16.70;99.90
65462;DHT22;53236;43.666;18.444;2023-08-24T04:07:32;16.70;99.90
65462;DHT22;53236;43.666;18.444;2023-08-24T04:09:58;16.70;99.90
65462;DHT22;53236;43.666;18.444;2023-08-24T04:12:24;16.70;99.90
65462;DHT22;53236;43.666;18.444;2023-08-24T04:14:50;16.80;99.90
65462;DHT22;53236;43.666;18.444;2023-08-24T04:17:17;16.90;99.90
65462;DHT22;53236;43.666;18.444;2023-08-24T04:19:43;16.90;99.90
65462;DHT22;53236;43.666;18.444;2023-08-24T04:22:09;16.90;99.90
65462;DHT22;53236;43.666;18.444;2023-08-24T04:24:35;16.90;99.90
65462;DHT22;53236;43.666;18.444;2023-08-24T04:27:00;17.00;99.90
65462;DHT22;53236;43.666;18.444;2023-08-24T04:29:27;17.00;99.90
65462;DHT22;53236;43.666;18.444;2023-08-24T04:31:53;17.10;99.90
65462;DHT22;53236;43.666;18.444;2023-08-24T04:34:18;17.10;99.90
65462;DHT22;53236;43.666;18.444;2023-08-24T04:36:44;17.00;99.90
65462;DHT22;53236;43.666;18.444;2023-08-24T04:39:10;16.90;99.90
65462;DHT22;53236;43.666;18.444;2023-08-24T04:41:36;17.00;99.90
65462;DHT22;53236;43.666;18.444;2023-08-24T04:44:02;17.00;99.90
65462;DHT22;53236;43.666;18.444;2023-08-24T04:46:28;17.10;99.90
65462;DHT22;53236;43.666;18.444;2023-08-24T04:48:53;17.20;99.90
65462;DHT22;53236;43.666;18.444;2023-08-24T04:51:19;17.30;99.90
65462;DHT22;53236;43.666;18.444;2023-08-24T04:53:45;17.20;99.90
65462;DHT22;53236;43.666;18.444;2023-08-24T04:56:10;17.10;99.90
65462;DHT22;53236;43.666;18.444;2023-08-24T04:58:36;16.90;99.90
65462;DHT22;53236;43.666;18.444;2023-08-24T05:01:02;17.00;99.90
65462;DHT22;53236;43.666;18.444;2023-08-24T05:03:28;17.10;99.90
65462;DHT22;53236;43.666;18.444;2023-08-24T05:05:53;17.20;99.90
65462;DHT22;53236;43.666;18.444;2023-08-24T05:08:19;17.20;99.90
65462;DHT22;53236;43.666;18.444;2023-08-24T05:10:45;17.00;99.90
65462;DHT22;53236;43.666;18.444;2023-08-24T05:13:12;17.10;99.90
65462;DHT22;53236;43.666;18.444;2023-08-24T05:15:39;17.20;99.90
65462;DHT22;53236;43.666;18.444;2023-08-24T05:18:04;17.10;99.90
65462;DHT22;53236;43.666;18.444;2023-08-24T05:20:30;17.30;99.90
65462;DHT22;53236;43.666;18.444;2023-08-24T05:22:56;17.40;99.90
65462;DHT22;53236;43.666;18.444;2023-08-24T05:25:22;17.60;99.90
65462;DHT22;53236;43.666;18.444;2023-08-24T05:27:48;17.70;99.90
65462;DHT22;53236;43.666;18.444;2023-08-24T05:30:14;17.90;99.90
65462;DHT22;53236;43.666;18.444;2023-08-24T05:32:40;17.90;99.90
65462;DHT22;53236;43.666;18.444;2023-08-24T05:35:06;18.00;99.90
65462;DHT22;53236;43.666;18.444;2023-08-24T05:37:32;18.10;99.90
65462;DHT22;53236;43.666;18.444;2023-08-24T05:39:59;18.20;99.90
65462;DHT22;53236;43.666;18.444;2023-08-24T05:42:25;18.40;99.90
65462;DHT22;53236;43.666;18.444;2023-08-24T05:44:51;18.50;99.90
65462;DHT22;53236;43.666;18.444;2023-08-24T05:47:17;18.40;99.90
65462;DHT22;53236;43.666;18.444;2023-08-24T05:49:43;18.40;99.90
65462;DHT22;53236;43.666;18.444;2023-08-24T05:52:08;18.80;99.90
65462;DHT22;53236;43.666;18.444;2023-08-24T05:54:36;19.30;99.90
65462;DHT22;53236;43.666;18.444;2023-08-24T05:57:02;20.40;99.90
65462;DHT22;53236;43.666;18.444;2023-08-24T05:59:29;21.60;99.90
65462;DHT22;53236;43.666;18.444;2023-08-24T06:01:55;22.90;99.90
65462;DHT22;53236;43.666;18.444;2023-08-24T06:04:21;24.50;97.40
65462;DHT22;53236;43.666;18.444;2023-08-24T06:06:47;24.80;95.00
65462;DHT22;53236;43.666;18.444;2023-08-24T06:09:13;25.60;90.30
65462;DHT22;53236;43.666;18.444;2023-08-24T06:11:40;26.30;86.10
65462;DHT22;53236;43.666;18.444;2023-08-24T06:14:06;26.90;81.30
65462;DHT22;53236;43.666;18.444;2023-08-24T06:16:33;27.70;78.60
65462;DHT22;53236;43.666;18.444;2023-08-24T06:18:58;28.10;73.90
65462;DHT22;53236;43.666;18.444;2023-08-24T06:21:24;29.00;72.20
65462;DHT22;53236;43.666;18.444;2023-08-24T06:23:50;30.10;68.60
65462;DHT22;53236;43.666;18.444;2023-08-24T06:26:17;30.80;66.90
65462;DHT22;53236;43.666;18.444;2023-08-24T06:28:43;31.50;64.00
65462;DHT22;53236;43.666;18.444;2023-08-24T06:31:09;32.50;62.80
65462;DHT22;53236;43.666;18.444;2023-08-24T06:33:35;33.50;59.00
65462;DHT22;53236;43.666;18.444;2023-08-24T06:36:02;33.70;58.20
65462;DHT22;53236;43.666;18.444;2023-08-24T06:38:30;34.70;58.00
65462;DHT22;53236;43.666;18.444;2023-08-24T06:40:57;35.10;55.50
65462;DHT22;53236;43.666;18.444;2023-08-24T06:43:23;35.20;56.00
65462;DHT22;53236;43.666;18.444;2023-08-24T06:45:49;35.40;55.30
65462;DHT22;53236;43.666;18.444;2023-08-24T06:48:15;36.30;54.10
65462;DHT22;53236;43.666;18.444;2023-08-24T06:50:41;36.20;54.00
65462;DHT22;53236;43.666;18.444;2023-08-24T06:53:06;36.30;53.10
65462;DHT22;53236;43.666;18.444;2023-08-24T06:55:32;36.80;52.20
65462;DHT22;53236;43.666;18.444;2023-08-24T06:57:58;36.60;52.20
65462;DHT22;53236;43.666;18.444;2023-08-24T07:00:23;37.60;51.90
65462;DHT22;53236;43.666;18.444;2023-08-24T07:02:51;39.10;50.60
65462;DHT22;53236;43.666;18.444;2023-08-24T07:05:16;40.00;49.30
65462;DHT22;53236;43.666;18.444;2023-08-24T07:07:47;40.80;48.30
65462;DHT22;53236;43.666;18.444;2023-08-24T07:10:14;41.30;47.10
65462;DHT22;53236;43.666;18.444;2023-08-24T07:12:40;41.90;46.20
65462;DHT22;53236;43.666;18.444;2023-08-24T07:15:10;42.90;45.40
65462;DHT22;53236;43.666;18.444;2023-08-24T07:17:36;41.50;46.50
65462;DHT22;53236;43.666;18.444;2023-08-24T07:20:03;42.70;46.10
65462;DHT22;53236;43.666;18.444;2023-08-24T07:22:31;43.40;45.40
65462;DHT22;53236;43.666;18.444;2023-08-24T07:24:57;44.10;44.70
65462;DHT22;53236;43.666;18.444;2023-08-24T07:27:22;45.00;43.70
65462;DHT22;53236;43.666;18.444;2023-08-24T07:29:48;46.00;42.10
65462;DHT22;53236;43.666;18.444;2023-08-24T07:32:14;46.20;41.90
65462;DHT22;53236;43.666;18.444;2023-08-24T07:34:40;45.80;42.10
65462;DHT22;53236;43.666;18.444;2023-08-24T07:37:06;46.40;41.80
65462;DHT22;53236;43.666;18.444;2023-08-24T07:39:32;45.80;41.00
65462;DHT22;53236;43.666;18.444;2023-08-24T07:41:59;45.90;42.20
65462;DHT22;53236;43.666;18.444;2023-08-24T07:44:24;46.70;41.70
65462;DHT22;53236;43.666;18.444;2023-08-24T07:46:50;47.30;41.10
65462;DHT22;53236;43.666;18.444;2023-08-24T07:49:16;46.40;42.10
65462;DHT22;53236;43.666;18.444;2023-08-24T07:51:42;46.60;41.20
65462;DHT22;53236;43.666;18.444;2023-08-24T07:54:13;46.10;42.30
65462;DHT22;53236;43.666;18.444;2023-08-24T07:56:38;46.40;41.60
65462;DHT22;53236;43.666;18.444;2023-08-24T07:59:04;44.70;40.80
65462;DHT22;53236;43.666;18.444;2023-08-24T08:01:30;43.30;42.40
65462;DHT22;53236;43.666;18.444;2023-08-24T08:03:56;43.40;43.10
65462;DHT22;53236;43.666;18.444;2023-08-24T08:06:22;43.20;43.80
65462;DHT22;53236;43.666;18.444;2023-08-24T08:08:50;40.90;45.80
65462;DHT22;53236;43.666;18.444;2023-08-24T08:11:17;40.40;47.10
65462;DHT22;53236;43.666;18.444;2023-08-24T08:13:43;40.80;46.70
65462;DHT22;53236;43.666;18.444;2023-08-24T08:16:09;41.90;46.20
65462;DHT22;53236;43.666;18.444;2023-08-24T08:18:36;42.40;44.90
65462;DHT22;53236;43.666;18.444;2023-08-24T08:21:14;43.30;44.60
65462;DHT22;53236;43.666;18.444;2023-08-24T08:23:40;42.80;44.60
65462;DHT22;53236;43.666;18.444;2023-08-24T08:26:08;43.80;44.80
65462;DHT22;53236;43.666;18.444;2023-08-24T08:28:35;45.20;43.80
65462;DHT22;53236;43.666;18.444;2023-08-24T08:31:01;45.50;42.90
65462;DHT22;53236;43.666;18.444;2023-08-24T08:33:27;44.40;43.50
65462;DHT22;53236;43.666;18.444;2023-08-24T08:35:53;43.60;43.90
65462;DHT22;53236;43.666;18.444;2023-08-24T08:38:18;43.10;44.50
65462;DHT22;53236;43.666;18.444;2023-08-24T08:40:49;43.50;44.60
65462;DHT22;53236;43.666;18.444;2023-08-24T08:43:15;43.50;44.00
65462;DHT22;53236;43.666;18.444;2023-08-24T08:45:41;43.30;45.20
65462;DHT22;53236;43.666;18.444;2023-08-24T08:48:08;43.80;45.20
65462;DHT22;53236;43.666;18.444;2023-08-24T08:50:34;43.50;45.30
65462;DHT22;53236;43.666;18.444;2023-08-24T08:53:01;42.30;45.40
65462;DHT22;53236;43.666;18.444;2023-08-24T08:55:28;41.50;46.60
65462;DHT22;53236;43.666;18.444;2023-08-24T08:57:56;42.20;47.10
65462;DHT22;53236;43.666;18.444;2023-08-24T09:00:27;43.10;45.40
65462;DHT22;53236;43.666;18.444;2023-08-24T09:02:53;43.50;44.20
65462;DHT22;53236;43.666;18.444;2023-08-24T09:05:19;40.20;47.50
65462;DHT22;53236;43.666;18.444;2023-08-24T09:07:46;38.70;49.90
65462;DHT22;53236;43.666;18.444;2023-08-24T09:10:13;38.50;52.00
65462;DHT22;53236;43.666;18.444;2023-08-24T09:12:39;39.30;49.60
65462;DHT22;53236;43.666;18.444;2023-08-24T09:15:05;39.10;50.60
65462;DHT22;53236;43.666;18.444;2023-08-24T09:17:32;39.40;50.50
65462;DHT22;53236;43.666;18.444;2023-08-24T09:20:00;39.40;50.10
65462;DHT22;53236;43.666;18.444;2023-08-24T09:22:26;37.90;51.60
65462;DHT22;53236;43.666;18.444;2023-08-24T09:24:52;37.40;52.80
65462;DHT22;53236;43.666;18.444;2023-08-24T09:27:20;36.50;54.30
65462;DHT22;53236;43.666;18.444;2023-08-24T09:29:50;36.10;54.60
65462;DHT22;53236;43.666;18.444;2023-08-24T09:32:30;36.00;55.50
65462;DHT22;53236;43.666;18.444;2023-08-24T09:35:03;36.00;55.70
65462;DHT22;53236;43.666;18.444;2023-08-24T09:37:34;35.20;56.00
65462;DHT22;53236;43.666;18.444;2023-08-24T09:40:06;34.60;56.70
65462;DHT22;53236;43.666;18.444;2023-08-24T09:42:41;34.20;57.30
65462;DHT22;53236;43.666;18.444;2023-08-24T09:45:14;34.20;55.60
65462;DHT22;53236;43.666;18.444;2023-08-24T09:47:51;34.10;56.20
65462;DHT22;53236;43.666;18.444;2023-08-24T09:50:18;34.30;57.20
65462;DHT22;53236;43.666;18.444;2023-08-24T09:52:44;34.70;56.70
65462;DHT22;53236;43.666;18.444;2023-08-24T09:55:12;34.70;54.40
65462;DHT22;53236;43.666;18.444;2023-08-24T09:57:41;34.60;53.00
65462;DHT22;53236;43.666;18.444;2023-08-24T10:00:08;34.20;55.80
65462;DHT22;53236;43.666;18.444;2023-08-24T10:02:51;33.20;55.40
65462;DHT22;53236;43.666;18.444;2023-08-24T10:05:24;32.40;60.00
65462;DHT22;53236;43.666;18.444;2023-08-24T10:07:52;31.70;62.70
65462;DHT22;53236;43.666;18.444;2023-08-24T10:10:20;31.40;63.50
65462;DHT22;53236;43.666;18.444;2023-08-24T10:12:56;31.10;64.80
65462;DHT22;53236;43.666;18.444;2023-08-24T10:15:24;31.00;66.10
65462;DHT22;53236;43.666;18.444;2023-08-24T10:17:52;31.30;66.90
65462;DHT22;53236;43.666;18.444;2023-08-24T10:20:22;31.50;66.00
65462;DHT22;53236;43.666;18.444;2023-08-24T10:22:50;31.60;64.50
65462;DHT22;53236;43.666;18.444;2023-08-24T10:25:17;31.60;64.40
65462;DHT22;53236;43.666;18.444;2023-08-24T10:27:46;31.40;65.50
65462;DHT22;53236;43.666;18.444;2023-08-24T10:30:15;31.40;66.70
65462;DHT22;53236;43.666;18.444;2023-08-24T10:32:43;31.80;65.90
65462;DHT22;53236;43.666;18.444;2023-08-24T10:35:09;32.10;66.40
65462;DHT22;53236;43.666;18.444;2023-08-24T10:37:35;31.60;63.90
65462;DHT22;53236;43.666;18.444;2023-08-24T10:40:01;31.80;62.80
65462;DHT22;53236;43.666;18.444;2023-08-24T10:42:26;31.50;61.90
65462;DHT22;53236;43.666;18.444;2023-08-24T10:44:52;31.60;62.50
65462;DHT22;53236;43.666;18.444;2023-08-24T10:47:19;31.40;63.10
65462;DHT22;53236;43.666;18.444;2023-08-24T10:52:32;31.10;63.40
65462;DHT22;53236;43.666;18.444;2023-08-24T10:55:01;30.90;63.80
65462;DHT22;53236;43.666;18.444;2023-08-24T10:57:35;30.80;65.30
65462;DHT22;53236;43.666;18.444;2023-08-24T11:00:06;30.90;66.90
65462;DHT22;53236;43.666;18.444;2023-08-24T11:05:19;30.70;67.10
65462;DHT22;53236;43.666;18.444;2023-08-24T11:08:05;30.70;67.70
65462;DHT22;53236;43.666;18.444;2023-08-24T11:13:15;30.60;66.70
65462;DHT22;53236;43.666;18.444;2023-08-24T11:15:46;30.50;67.30
65462;DHT22;53236;43.666;18.444;2023-08-24T11:18:13;30.30;67.50
65462;DHT22;53236;43.666;18.444;2023-08-24T11:20:50;30.20;69.30
65462;DHT22;53236;43.666;18.444;2023-08-24T11:23:17;30.20;69.60
65462;DHT22;53236;43.666;18.444;2023-08-24T11:25:44;30.40;69.70
65462;DHT22;53236;43.666;18.444;2023-08-24T11:28:10;30.40;69.90
65462;DHT22;53236;43.666;18.444;2023-08-24T11:30:36;30.20;68.20
65462;DHT22;53236;43.666;18.444;2023-08-24T11:33:02;30.30;68.60
65462;DHT22;53236;43.666;18.444;2023-08-24T11:35:29;30.30;69.10
65462;DHT22;53236;43.666;18.444;2023-08-24T11:37:57;30.50;68.10
65462;DHT22;53236;43.666;18.444;2023-08-24T11:40:24;30.60;66.80
65462;DHT22;53236;43.666;18.444;2023-08-24T11:42:59;30.90;67.20
65462;DHT22;53236;43.666;18.444;2023-08-24T11:45:30;31.10;65.90
65462;DHT22;53236;43.666;18.444;2023-08-24T11:47:58;31.10;64.60
65462;DHT22;53236;43.666;18.444;2023-08-24T11:50:25;30.50;65.30
65462;DHT22;53236;43.666;18.444;2023-08-24T11:52:52;30.60;65.50
65462;DHT22;53236;43.666;18.444;2023-08-24T11:55:19;30.80;65.10
65462;DHT22;53236;43.666;18.444;2023-08-24T11:57:46;30.30;64.40
65462;DHT22;53236;43.666;18.444;2023-08-24T12:00:12;30.50;65.20
65462;DHT22;53236;43.666;18.444;2023-08-24T12:02:40;30.70;65.40
65462;DHT22;53236;43.666;18.444;2023-08-24T12:05:07;31.00;64.40
65462;DHT22;53236;43.666;18.444;2023-08-24T12:07:33;31.30;64.00
65462;DHT22;53236;43.666;18.444;2023-08-24T12:10:02;31.80;63.40
65462;DHT22;53236;43.666;18.444;2023-08-24T12:12:28;31.80;63.70
65462;DHT22;53236;43.666;18.444;2023-08-24T12:14:55;32.10;63.60
65462;DHT22;53236;43.666;18.444;2023-08-24T12:17:23;32.10;61.70
65462;DHT22;53236;43.666;18.444;2023-08-24T12:19:59;31.50;62.50
65462;DHT22;53236;43.666;18.444;2023-08-24T12:22:26;31.10;64.50
65462;DHT22;53236;43.666;18.444;2023-08-24T12:24:52;31.00;64.70
65462;DHT22;53236;43.666;18.444;2023-08-24T12:27:22;30.70;64.40
65462;DHT22;53236;43.666;18.444;2023-08-24T12:29:48;30.30;66.40
65462;DHT22;53236;43.666;18.444;2023-08-24T12:32:15;30.00;66.60
65462;DHT22;53236;43.666;18.444;2023-08-24T12:34:42;29.80;67.90
65462;DHT22;53236;43.666;18.444;2023-08-24T12:37:08;29.60;67.90
65462;DHT22;53236;43.666;18.444;2023-08-24T12:39:36;29.30;70.00
65462;DHT22;53236;43.666;18.444;2023-08-24T12:42:03;29.10;71.10
65462;DHT22;53236;43.666;18.444;2023-08-24T12:44:29;28.80;70.80
65462;DHT22;53236;43.666;18.444;2023-08-24T12:46:54;28.50;72.20
65462;DHT22;53236;43.666;18.444;2023-08-24T13:17:37;26.30;97.40
65462;DHT22;53236;43.666;18.444;2023-08-24T13:20:04;24.50;99.90
65462;DHT22;53236;43.666;18.444;2023-08-24T13:22:30;24.30;99.30
65462;DHT22;53236;43.666;18.444;2023-08-24T13:24:56;24.30;99.90
65462;DHT22;53236;43.666;18.444;2023-08-24T13:27:22;24.50;99.90
65462;DHT22;53236;43.666;18.444;2023-08-24T13:29:48;24.70;99.90
65462;DHT22;53236;43.666;18.444;2023-08-24T13:32:14;24.80;99.90
65462;DHT22;53236;43.666;18.444;2023-08-24T13:34:39;25.00;99.90
65462;DHT22;53236;43.666;18.444;2023-08-24T13:37:05;25.00;99.90
65462;DHT22;53236;43.666;18.444;2023-08-24T13:39:31;25.10;99.90
65462;DHT22;53236;43.666;18.444;2023-08-24T13:41:59;25.20;99.90
65462;DHT22;53236;43.666;18.444;2023-08-24T13:44:25;25.00;99.90
65462;DHT22;53236;43.666;18.444;2023-08-24T13:46:51;25.00;99.90
65462;DHT22;53236;43.666;18.444;2023-08-24T13:49:19;24.90;99.90
65462;DHT22;53236;43.666;18.444;2023-08-24T13:51:45;24.80;99.90
65462;DHT22;53236;43.666;18.444;2023-08-24T13:54:18;24.90;99.90
65462;DHT22;53236;43.666;18.444;2023-08-24T13:56:45;24.90;99.90
65462;DHT22;53236;43.666;18.444;2023-08-24T13:59:12;24.90;99.90
65462;DHT22;53236;43.666;18.444;2023-08-24T14:01:39;25.00;99.90
65462;DHT22;53236;43.666;18.444;2023-08-24T14:04:05;25.10;99.90
65462;DHT22;53236;43.666;18.444;2023-08-24T14:06:32;25.20;99.90
65462;DHT22;53236;43.666;18.444;2023-08-24T14:09:00;25.40;99.90
65462;DHT22;53236;43.666;18.444;2023-08-24T14:11:27;25.60;99.90
65462;DHT22;53236;43.666;18.444;2023-08-24T14:13:53;25.60;99.90
65462;DHT22;53236;43.666;18.444;2023-08-24T14:16:19;25.60;99.90
65462;DHT22;53236;43.666;18.444;2023-08-24T14:18:48;25.50;99.90
65462;DHT22;53236;43.666;18.444;2023-08-24T14:21:15;25.40;99.90
65462;DHT22;53236;43.666;18.444;2023-08-24T14:23:41;25.50;99.90
65462;DHT22;53236;43.666;18.444;2023-08-24T14:26:07;25.60;99.90
65462;DHT22;53236;43.666;18.444;2023-08-24T14:28:53;25.60;99.90
65462;DHT22;53236;43.666;18.444;2023-08-24T14:31:21;25.40;99.90
65462;DHT22;53236;43.666;18.444;2023-08-24T14:33:47;25.30;99.90
65462;DHT22;53236;43.666;18.444;2023-08-24T14:36:12;25.10;99.90
65462;DHT22;53236;43.666;18.444;2023-08-24T14:38:39;24.70;99.90
65462;DHT22;53236;43.666;18.444;2023-08-24T14:41:12;24.40;99.90
65462;DHT22;53236;43.666;18.444;2023-08-24T14:43:39;24.10;99.90
65462;DHT22;53236;43.666;18.444;2023-08-24T14:46:05;24.00;99.90
65462;DHT22;53236;43.666;18.444;2023-08-24T14:48:31;24.00;99.90
65462;DHT22;53236;43.666;18.444;2023-08-24T14:50:57;24.10;99.90
65462;DHT22;53236;43.666;18.444;2023-08-24T14:53:24;24.00;99.90
65462;DHT22;53236;43.666;18.444;2023-08-24T14:55:50;24.00;99.90
65462;DHT22;53236;43.666;18.444;2023-08-24T14:58:16;23.90;99.90
65462;DHT22;53236;43.666;18.444;2023-08-24T15:00:43;23.80;99.90
65462;DHT22;53236;43.666;18.444;2023-08-24T15:03:11;23.70;99.90
65462;DHT22;53236;43.666;18.444;2023-08-24T15:05:43;23.80;99.90
65462;DHT22;53236;43.666;18.444;2023-08-24T15:08:09;23.90;99.90
65462;DHT22;53236;43.666;18.444;2023-08-24T15:10:37;24.00;99.90
65462;DHT22;53236;43.666;18.444;2023-08-24T15:13:03;24.10;99.90
65462;DHT22;53236;43.666;18.444;2023-08-24T15:15:28;24.20;99.90
65462;DHT22;53236;43.666;18.444;2023-08-24T15:17:54;24.30;99.90
65462;DHT22;53236;43.666;18.444;2023-08-24T15:20:20;24.30;99.90
65462;DHT22;53236;43.666;18.444;2023-08-24T15:22:46;24.50;99.90
65462;DHT22;53236;43.666;18.444;2023-08-24T15:25:11;24.80;99.90
65462;DHT22;53236;43.666;18.444;2023-08-24T15:27:37;24.90;99.90
65462;DHT22;53236;43.666;18.444;2023-08-24T15:30:04;25.20;99.90
65462;DHT22;53236;43.666;18.444;2023-08-24T15:32:33;25.30;99.90
65462;DHT22;53236;43.666;18.444;2023-08-24T15:34:58;25.40;99.90
65462;DHT22;53236;43.666;18.444;2023-08-24T15:37:24;25.50;99.90
65462;DHT22;53236;43.666;18.444;2023-08-24T15:39:50;25.50;99.90
65462;DHT22;53236;43.666;18.444;2023-08-24T15:42:16;25.60;99.90
65462;DHT22;53236;43.666;18.444;2023-08-24T15:44:42;25.70;99.90
65462;DHT22;53236;43.666;18.444;2023-08-24T15:47:08;25.70;99.90
65462;DHT22;53236;43.666;18.444;2023-08-24T15:49:34;25.80;99.90
65462;DHT22;53236;43.666;18.444;2023-08-24T15:51:59;25.80;99.90
65462;DHT22;53236;43.666;18.444;2023-08-24T15:54:25;25.70;99.90
65462;DHT22;53236;43.666;18.444;2023-08-24T15:56:52;25.70;99.90